Time;durP1;ratioP1;P1;durP2;ratioP2;P2;SDS_P1;SDS_P2;PMS_P1;PMS_P2;Temp;Humidity;BMP_temperature;BMP_pressure;BME280_temperature;BME280_humidity;BME280_pressure;Samples;Min_cycle;Max_cycle;Signal;HPM_P1;HPM_P2
2022/01/23 00:05:15;;;;;;;10.93;3.50;;;;;;;0.64;47.76;101552.13;18625054;31;20132;-70
2022/01/23 00:36:00;;;;;;;11.27;4.97;;;;;;;-0.54;50.31;101568.34;18623375;31;20060;-70
2022/01/23 00:46:20;;;;;;;8.57;3.67;;;;;;;-0.60;51.35;101575.63;18625706;31;20102;-70
2022/01/23 00:56:24;;;;;;;8.03;2.87;;;;;;;-0.65;51.97;101582.19;18630816;31;20137;-70
2022/01/23 01:06:28;;;;;;;9.67;2.87;;;;;;;-0.44;51.10;101577.47;18630205;31;20081;-70
2022/01/23 01:16:52;;;;;;;10.63;4.67;;;;;;;-0.24;50.66;101567.53;18628968;31;20092;-69
2022/01/23 01:37:36;;;;;;;10.77;5.23;;;;;;;-0.77;52.68;101567.78;18629153;31;20096;-70
2022/01/23 01:47:47;;;;;;;8.67;3.63;;;;;;;-0.76;52.10;101564.44;18628597;31;20387;-69
2022/01/23 01:57:54;;;;;;;6.43;2.33;;;;;;;-1.22;54.13;101569.19;18628358;31;20498;-70
2022/01/23 02:18:30;;;;;;;8.80;3.87;;;;;;;-0.81;51.73;101537.59;18628188;31;20080;-69
2022/01/23 02:59:40;;;;;;;7.30;2.83;;;;;;;-0.74;53.01;101551.69;18626357;31;20094;-70
2022/01/23 03:09:59;;;;;;;6.10;2.30;;;;;;;-0.35;51.89;101556.63;18625311;31;20084;-69
2022/01/23 03:30:26;;;;;;;7.87;2.93;;;;;;;-0.03;51.29;101571.41;18626259;31;20096;-69
2022/01/23 03:40:29;;;;;;;7.00;2.85;;;;;;;0.38;49.65;101568.63;18626067;31;20098;-70
2022/01/23 03:50:34;;;;;;;7.15;2.67;;;;;;;0.64;48.83;101569.25;18625766;31;20114;-70
2022/01/23 04:00:37;;;;;;;6.50;2.65;;;;;;;0.98;47.50;101567.69;18625160;31;20068;-70
2022/01/23 04:10:42;;;;;;;7.25;2.30;;;;;;;1.08;47.50;101559.69;18625230;31;20118;-69
2022/01/23 04:20:48;;;;;;;5.22;2.28;;;;;;;1.01;47.20;101550.75;18624274;31;20107;-70
2022/01/23 05:02:08;;;;;;;6.87;2.35;;;;;;;1.36;44.18;101561.22;18415493;32;20139;-70
2022/01/23 05:12:13;;;;;;;7.78;2.92;;;;;;;1.41;44.31;101572.63;18415910;32;20136;-70
2022/01/23 05:22:26;;;;;;;8.27;2.50;;;;;;;1.14;44.93;101588.34;18415479;32;20116;-70
2022/01/23 05:32:34;;;;;;;5.32;2.12;;;;;;;1.23;44.94;101576.00;18463915;31;20102;-70
2022/01/23 05:42:37;;;;;;;6.10;2.30;;;;;;;1.54;44.08;101599.03;18628763;31;20112;-69
2022/01/23 05:52:42;;;;;;;5.72;2.00;;;;;;;1.25;44.67;101630.06;18628149;31;20084;-70
2022/01/23 06:02:45;;;;;;;7.45;2.53;;;;;;;1.19;45.39;101630.63;18628530;31;20088;-69
2022/01/23 06:12:49;;;;;;;17.77;7.35;;;;;;;1.00;46.63;101639.00;18628467;31;20107;-70
2022/01/23 06:22:52;;;;;;;9.45;3.97;;;;;;;1.18;45.75;101641.72;18628300;31;20098;-70
2022/01/23 06:32:57;;;;;;;12.50;4.12;;;;;;;1.22;46.02;101641.06;18627836;31;20135;-70
2022/01/23 06:43:00;;;;;;;8.02;2.87;;;;;;;1.30;45.52;101653.47;18627160;31;20085;-70
2022/01/23 06:53:05;;;;;;;6.07;3.08;;;;;;;1.26;45.54;101667.84;18627079;31;20106;-70
2022/01/23 07:03:08;;;;;;;8.77;2.95;;;;;;;1.27;46.98;101687.63;18626801;31;20067;-70
2022/01/23 07:13:12;;;;;;;6.30;2.70;;;;;;;0.95;47.08;101691.84;18626212;31;20102;-70
2022/01/23 07:23:21;;;;;;;11.65;4.40;;;;;;;1.39;46.67;101695.16;18623252;31;20092;-70
2022/01/23 07:33:25;;;;;;;11.65;4.97;;;;;;;1.15;47.69;101684.37;18627356;31;20084;-70
2022/01/23 07:43:28;;;;;;;8.90;3.15;;;;;;;1.17;47.78;101690.50;18624195;31;76489;-70
2022/01/23 07:53:32;;;;;;;11.15;3.50;;;;;;;1.55;47.95;101690.91;18681960;31;20617;-70
2022/01/23 08:03:35;;;;;;;11.10;4.10;;;;;;;1.96;46.82;101696.53;18691748;31;20081;-70
2022/01/23 08:13:40;;;;;;;11.85;4.80;;;;;;;1.92;45.42;101704.09;18691092;31;20102;-70
2022/01/23 08:23:43;;;;;;;10.80;3.67;;;;;;;2.21;44.41;101698.72;18691027;31;20475;-70
2022/01/23 08:33:48;;;;;;;8.18;3.42;;;;;;;2.29;44.24;101707.75;18690684;31;20127;-70
2022/01/23 08:43:52;;;;;;;8.80;4.22;;;;;;;2.74;42.39;101709.16;18690733;31;20107;-70
2022/01/23 08:53:59;;;;;;;10.23;5.05;;;;;;;2.69;42.89;101711.50;18689311;31;20088;-71
2022/01/23 09:04:02;;;;;;;11.77;3.83;;;;;;;3.03;42.56;101720.06;18690194;31;20132;-70
2022/01/23 09:14:07;;;;;;;12.85;5.93;;;;;;;3.22;41.60;101726.13;18638088;31;20096;-71
2022/01/23 09:24:11;;;;;;;14.57;4.25;;;;;;;3.21;41.72;101730.44;18612466;31;20119;-71
2022/01/23 09:34:15;;;;;;;9.05;3.83;;;;;;;3.33;40.96;101717.25;18618232;31;20367;-71
2022/01/23 09:44:20;;;;;;;9.52;3.42;;;;;;;3.63;40.21;101719.53;18621275;31;20140;-71
2022/01/23 09:54:24;;;;;;;8.43;2.85;;;;;;;3.91;39.71;101736.31;18625514;31;20088;-70
2022/01/23 10:04:27;;;;;;;13.88;4.72;;;;;;;4.05;38.83;101724.06;18629950;31;20151;-71
2022/01/23 10:14:32;;;;;;;17.37;5.70;;;;;;;3.73;38.83;101720.84;18630392;31;20088;-71
2022/01/23 10:24:35;;;;;;;10.40;3.47;;;;;;;4.58;37.21;101716.91;18629479;31;20146;-71
2022/01/23 10:34:51;;;;;;;9.88;4.20;;;;;;;4.35;37.21;101715.91;18629174;31;20102;-71
2022/01/23 10:55:27;;;;;;;7.75;2.95;;;;;;;4.90;36.44;101700.12;18625433;31;20212;-71
2022/01/23 11:05:35;;;;;;;7.35;3.40;;;;;;;4.45;37.80;101709.41;18628383;31;20088;-71
2022/01/23 11:26:12;;;;;;;10.65;4.37;;;;;;;4.49;37.04;101710.44;18658032;31;20452;-71
2022/01/23 11:36:18;;;;;;;9.68;4.45;;;;;;;4.75;36.99;101696.06;18626283;31;20106;-71
2022/01/23 11:56:47;;;;;;;7.55;3.03;;;;;;;4.91;36.15;101694.13;18626295;31;20115;-72
2022/01/23 12:07:19;;;;;;;17.30;7.82;;;;;;;5.25;35.95;101677.41;18625973;31;20092;-71
2022/01/23 12:17:43;;;;;;;9.48;3.60;;;;;;;5.33;35.16;101676.00;18625597;31;20106;-72
2022/01/23 12:27:46;;;;;;;11.10;4.43;;;;;;;5.52;35.85;101679.31;18625238;31;20100;-72
2022/01/23 12:38:09;;;;;;;8.52;3.33;;;;;;;5.26;36.20;101684.34;18627020;31;20092;-71
2022/01/23 12:48:45;;;;;;;13.85;4.82;;;;;;;5.21;35.77;101672.91;18645908;31;20349;-71
2022/01/23 12:58:53;;;;;;;11.23;4.78;;;;;;;5.49;36.22;101667.13;18645455;31;20439;-71
2022/01/23 13:09:16;;;;;;;7.50;3.33;;;;;;;5.36;36.17;101665.75;18644684;31;20097;-72
2022/01/23 13:19:47;;;;;;;9.27;3.97;;;;;;;5.28;35.61;101682.69;18643710;31;20145;-72
2022/01/23 13:30:17;;;;;;;10.00;4.32;;;;;;;5.13;36.62;101686.44;18644583;31;20107;-72
2022/01/23 13:40:27;;;;;;;10.35;3.97;;;;;;;5.23;36.13;101686.81;18642790;31;20084;-71
2022/01/23 14:01:02;;;;;;;9.90;4.00;;;;;;;5.53;35.99;101701.81;18630156;31;20072;-72
2022/01/23 14:11:06;;;;;;;13.30;4.70;;;;;;;5.10;36.48;101700.97;18629818;31;20178;-72
2022/01/23 14:21:11;;;;;;;12.37;5.07;;;;;;;5.48;36.21;101704.22;18638596;31;20107;-72
2022/01/23 14:31:19;;;;;;;11.93;5.03;;;;;;;5.58;36.33;101707.16;18644323;31;20362;-72
2022/01/23 14:41:24;;;;;;;12.15;5.20;;;;;;;5.53;36.51;101704.41;18694748;31;20087;-72
2022/01/23 14:51:34;;;;;;;13.60;4.55;;;;;;;5.56;36.65;101717.47;18692220;31;20421;-72
2022/01/23 15:01:40;;;;;;;14.32;6.82;;;;;;;5.18;36.79;101714.22;18692868;31;20099;-71
2022/01/23 15:11:43;;;;;;;14.23;5.87;;;;;;;5.31;37.22;101732.03;18693932;31;20134;-71
2022/01/23 15:21:47;;;;;;;22.85;9.63;;;;;;;4.84;38.15;101730.09;18693424;31;20106;-71
2022/01/23 15:31:50;;;;;;;125.28;45.72;;;;;;;4.41;39.04;101746.31;18645947;31;20092;-71
2022/01/23 15:41:56;;;;;;;39.25;15.70;;;;;;;4.37;39.55;101744.44;18626889;31;20144;-71
2022/01/23 15:52:00;;;;;;;32.13;12.37;;;;;;;3.73;40.90;101764.75;18626648;31;20226;-71
2022/01/23 16:02:06;;;;;;;30.52;12.93;;;;;;;3.37;42.29;101780.22;18623718;31;20092;-71
2022/01/23 16:12:10;;;;;;;37.33;14.02;;;;;;;3.14;43.43;101783.44;18625900;31;20440;-71
2022/01/23 16:22:35;;;;;;;30.08;12.52;;;;;;;3.19;44.05;101786.25;18626248;31;20115;-71
2022/01/23 16:32:38;;;;;;;16.85;7.28;;;;;;;2.81;43.86;101782.59;18625264;31;20111;-71
2022/01/23 16:42:43;;;;;;;20.05;7.80;;;;;;;1.99;46.07;101804.88;18624848;31;20363;-71
2022/01/23 16:52:46;;;;;;;14.80;5.60;;;;;;;1.48;48.05;101823.50;18623979;31;20407;-71
2022/01/23 17:02:50;;;;;;;18.42;8.68;;;;;;;0.91;50.23;101834.75;18626092;31;20144;-71
2022/01/23 17:12:53;;;;;;;12.37;5.80;;;;;;;0.73;51.39;101843.94;18622275;31;20092;-71
2022/01/23 17:22:58;;;;;;;26.73;12.52;;;;;;;0.78;49.21;101860.53;18618470;31;20091;-71
2022/01/23 17:33:01;;;;;;;53.70;30.88;;;;;;;0.54;49.82;101868.50;18627847;31;20357;-70
2022/01/23 17:43:06;;;;;;;34.95;20.05;;;;;;;0.47;50.66;101872.34;18630524;31;20088;-70
2022/01/23 17:53:09;;;;;;;51.83;28.07;;;;;;;0.26;52.50;101884.72;18627530;31;20109;-71
2022/01/23 18:03:16;;;;;;;59.47;30.17;;;;;;;0.21;52.79;101897.28;18594086;31;20126;-71
2022/01/23 18:13:23;;;;;;;78.97;35.60;;;;;;;-0.10;54.39;101902.09;18555977;32;20085;-71
2022/01/23 18:23:27;;;;;;;55.00;26.03;;;;;;;-0.09;53.37;101906.47;18563026;32;20132;-70
2022/01/23 18:33:31;;;;;;;36.00;17.07;;;;;;;-0.30;54.29;101929.91;18563041;32;20116;-70
2022/01/23 18:43:38;;;;;;;67.70;30.10;;;;;;;-0.42;54.60;101950.53;18562372;31;20107;-70
2022/01/23 18:53:45;;;;;;;42.53;19.83;;;;;;;-0.90;56.07;101960.06;18562489;32;20097;-70
2022/01/23 19:04:00;;;;;;;49.13;25.87;;;;;;;-1.12;55.17;101989.31;18562253;31;20098;-70
2022/01/23 19:14:04;;;;;;;56.27;29.97;;;;;;;-1.16;56.38;101988.22;18562229;32;20092;-70
2022/01/23 19:24:08;;;;;;;74.90;34.30;;;;;;;-1.10;56.63;101998.00;18561553;32;20372;-69
2022/01/23 19:34:11;;;;;;;55.57;27.80;;;;;;;-1.07;56.43;102023.84;18561349;32;20088;-70
2022/01/23 19:44:27;;;;;;;45.63;24.00;;;;;;;-1.45;58.85;102053.63;18560999;32;20092;-70
2022/01/23 19:54:30;;;;;;;60.03;29.93;;;;;;;-1.50;58.19;102057.50;18560338;32;20094;-70
2022/01/23 20:04:34;;;;;;;49.53;25.23;;;;;;;-1.57;58.85;102057.81;18560554;32;20452;-70
2022/01/23 20:14:37;;;;;;;37.47;20.47;;;;;;;-1.55;58.45;102059.72;18560322;32;20098;-70
2022/01/23 20:24:43;;;;;;;43.47;21.97;;;;;;;-1.73;59.05;102077.19;18559780;31;20080;-70
2022/01/23 20:34:46;;;;;;;40.83;21.77;;;;;;;-1.89;59.08;102092.16;18559067;32;20100;-69
2022/01/23 20:44:51;;;;;;;43.17;22.17;;;;;;;-1.97;59.11;102086.47;18558094;31;20119;-71
2022/01/23 20:54:55;;;;;;;40.53;20.77;;;;;;;-1.95;58.28;102082.34;18556904;32;20177;-69
2022/01/23 21:04:59;;;;;;;44.17;23.23;;;;;;;-2.40;59.83;102102.84;18561206;32;20097;-69
2022/01/23 21:15:19;;;;;;;46.87;25.20;;;;;;;-2.65;60.20;102123.94;18562452;32;20107;-69
2022/01/23 21:46:06;;;;;;;48.42;26.12;;;;;;;-2.86;61.27;102155.44;18563729;31;20073;-69
2022/01/23 21:56:09;;;;;;;54.67;27.17;;;;;;;-2.92;61.62;102166.06;18592275;31;20121;-69
2022/01/23 22:06:13;;;;;;;49.40;24.10;;;;;;;-3.09;61.80;102168.13;18582105;31;20391;-69
2022/01/23 22:16:16;;;;;;;51.77;24.33;;;;;;;-3.12;61.24;102177.22;18627203;31;20449;-69
2022/01/23 22:36:41;;;;;;;50.00;25.87;;;;;;;-3.59;62.49;102177.59;18626647;31;20134;-68
2022/01/23 22:46:46;;;;;;;52.03;25.67;;;;;;;-3.62;62.91;102189.34;18625883;31;20092;-69
2022/01/23 22:56:49;;;;;;;54.40;26.50;;;;;;;-3.95;62.82;102193.34;18628553;31;20094;-69
2022/01/23 23:06:54;;;;;;;42.07;23.17;;;;;;;-4.23;63.48;102197.75;18628630;31;20084;-68
2022/01/23 23:17:02;;;;;;;41.27;19.73;;;;;;;-4.20;63.18;102205.66;18627990;31;20434;-69
2022/01/23 23:27:06;;;;;;;38.87;21.33;;;;;;;-4.45;62.05;102203.53;18626632;31;20092;-68
2022/01/23 23:37:09;;;;;;;36.23;18.20;;;;;;;-4.57;63.92;102222.81;18627485;31;20429;-69
2022/01/23 23:47:14;;;;;;;36.67;17.23;;;;;;;-4.59;62.88;102230.34;18626942;31;20364;-68
2022/01/23 23:57:16;;;;;;;33.20;16.73;;;;;;;-5.04;64.06;102246.72;18626777;31;20102;-68
